Time;durP1;ratioP1;P1;durP2;ratioP2;P2;SDS_P1;SDS_P2;PMS_P1;PMS_P2;Temp;Humidity;BMP_temperature;BMP_pressure;BME280_temperature;BME280_humidity;BME280_pressure;Samples;Min_cycle;Max_cycle;Signal;HPM_P1;HPM_P2
2021/07/17 00:00:05;;;;;;;11.65;7.65;;;;;;;;;;8272789;28;20363;-69
2021/07/17 00:04:15;;;;;;;15.43;6.93;;;;;;;;;;8261544;28;20610;-69
2021/07/17 00:08:25;;;;;;;12.50;7.20;;;;;;;;;;8258760;28;20467;-69
2021/07/17 00:12:30;;;;;;;9.07;6.22;;;;;;;;;;8257858;28;20351;-69
2021/07/17 00:16:36;;;;;;;11.75;6.90;;;;;;;;;;8258301;28;20464;-70
2021/07/17 00:20:41;;;;;;;12.98;6.70;;;;;;;;;;8240551;28;20371;-71
2021/07/17 00:24:46;;;;;;;10.05;7.63;;;;;;;;;;8223536;28;20491;-69
2021/07/17 00:28:50;;;;;;;12.80;7.40;;;;;;;;;;8240064;28;20063;-70
2021/07/17 00:32:55;;;;;;;9.55;6.80;;;;;;;;;;8260036;28;20049;-69
2021/07/17 00:37:00;;;;;;;15.23;7.20;;;;;;;;;;8257754;28;20356;-69
2021/07/17 00:41:05;;;;;;;13.90;7.97;;;;;;;;;;8223659;28;20352;-69
2021/07/17 00:45:11;;;;;;;13.45;7.45;;;;;;;;;;8257103;28;20363;-69
2021/07/17 00:49:20;;;;;;;12.38;7.25;;;;;;;;;;8270906;28;20509;-69
2021/07/17 00:53:25;;;;;;;11.52;7.20;;;;;;;;;;8292245;28;20497;-69
2021/07/17 00:57:42;;;;;;;12.90;7.40;;;;;;;;;;8290005;28;20383;-69
2021/07/17 01:01:48;;;;;;;9.40;6.43;;;;;;;;;;8291121;28;20487;-69
2021/07/17 01:05:54;;;;;;;9.90;6.82;;;;;;;;;;8272422;28;20378;-69
2021/07/17 01:09:59;;;;;;;9.55;6.78;;;;;;;;;;8290317;28;20467;-69
2021/07/17 01:14:05;;;;;;;14.75;6.70;;;;;;;;;;8292002;28;20383;-69
2021/07/17 01:18:10;;;;;;;15.10;6.78;;;;;;;;;;8288833;28;20048;-69
2021/07/17 01:22:15;;;;;;;10.82;6.40;;;;;;;;;;8289892;28;20443;-69
2021/07/17 01:26:20;;;;;;;10.07;6.35;;;;;;;;;;8277715;28;20048;-69
2021/07/17 01:30:27;;;;;;;13.30;6.35;;;;;;;;;;8297919;28;20368;-69
2021/07/17 01:34:40;;;;;;;15.20;7.47;;;;;;;;;;8265409;28;20062;-69
2021/07/17 01:38:45;;;;;;;9.77;6.75;;;;;;;;;;8295887;28;20375;-69
2021/07/17 01:42:57;;;;;;;8.65;6.65;;;;;;;;;;8294979;28;20363;-69
2021/07/17 01:47:02;;;;;;;10.45;6.45;;;;;;;;;;8297362;28;20062;-69
2021/07/17 01:51:07;;;;;;;12.57;6.95;;;;;;;;;;8296303;28;20468;-69
2021/07/17 01:55:12;;;;;;;16.42;7.13;;;;;;;;;;8278470;28;20390;-69
2021/07/17 01:59:19;;;;;;;10.02;7.03;;;;;;;;;;8295124;28;20377;-69
2021/07/17 02:03:24;;;;;;;10.07;7.10;;;;;;;;;;8294404;28;20485;-70
2021/07/17 02:07:29;;;;;;;11.75;6.53;;;;;;;;;;8295486;28;20402;-69
2021/07/17 02:11:33;;;;;;;14.00;8.05;;;;;;;;;;8295979;28;20329;-69
2021/07/17 02:15:43;;;;;;;10.77;7.13;;;;;;;;;;8294255;28;20373;-69
2021/07/17 02:19:51;;;;;;;14.70;7.65;;;;;;;;;;8278233;28;20368;-69
2021/07/17 02:23:56;;;;;;;19.88;8.65;;;;;;;;;;8294796;28;20063;-69
2021/07/17 02:28:01;;;;;;;13.60;8.35;;;;;;;;;;8294317;28;20463;-69
2021/07/17 02:32:06;;;;;;;13.48;8.07;;;;;;;;;;8293332;28;20067;-69
2021/07/17 02:36:11;;;;;;;13.48;7.68;;;;;;;;;;8295868;28;20371;-69
2021/07/17 02:40:16;;;;;;;11.85;7.38;;;;;;;;;;8296505;28;20040;-69
2021/07/17 02:44:21;;;;;;;15.68;7.57;;;;;;;;;;8294700;28;20455;-69
2021/07/17 02:48:25;;;;;;;13.02;7.53;;;;;;;;;;8275347;28;20056;-69
2021/07/17 02:52:30;;;;;;;11.52;7.55;;;;;;;;;;8293649;28;20343;-69
2021/07/17 02:56:35;;;;;;;15.25;7.35;;;;;;;;;;8292811;28;20474;-70
2021/07/17 03:00:40;;;;;;;11.15;7.85;;;;;;;;;;8293425;28;20466;-69
2021/07/17 03:04:46;;;;;;;11.00;7.68;;;;;;;;;;8258400;28;20383;-69
2021/07/17 03:08:50;;;;;;;16.52;9.25;;;;;;;;;;8262363;28;20478;-69
2021/07/17 03:12:55;;;;;;;20.48;8.70;;;;;;;;;;8260421;28;20353;-69
2021/07/17 03:17:01;;;;;;;13.00;8.05;;;;;;;;;;8259869;28;20546;-69
2021/07/17 03:21:07;;;;;;;17.05;8.02;;;;;;;;;;8260645;28;20509;-69
2021/07/17 03:25:12;;;;;;;17.00;8.90;;;;;;;;;;8257178;28;20361;-69
2021/07/17 03:29:17;;;;;;;17.73;8.52;;;;;;;;;;8259734;28;20486;-69
2021/07/17 03:33:22;;;;;;;17.88;9.40;;;;;;;;;;8259677;28;20049;-69
2021/07/17 03:37:27;;;;;;;17.92;8.45;;;;;;;;;;8259600;28;20483;-69
2021/07/17 03:41:32;;;;;;;12.27;8.25;;;;;;;;;;8257890;28;20338;-69
2021/07/17 03:45:37;;;;;;;14.68;8.13;;;;;;;;;;8259003;28;20388;-69
2021/07/17 03:49:42;;;;;;;10.43;7.32;;;;;;;;;;8258880;28;20391;-69
2021/07/17 03:53:47;;;;;;;12.15;7.40;;;;;;;;;;8257600;28;20049;-69
2021/07/17 03:57:52;;;;;;;10.18;6.18;;;;;;;;;;8273440;28;20364;-69
2021/07/17 04:01:57;;;;;;;11.32;6.50;;;;;;;;;;8260835;28;20468;-70
2021/07/17 04:06:03;;;;;;;9.27;5.60;;;;;;;;;;8258475;28;20380;-69
2021/07/17 04:10:09;;;;;;;12.25;5.82;;;;;;;;;;8258424;28;20475;-69
2021/07/17 04:14:15;;;;;;;7.30;5.45;;;;;;;;;;8256949;28;20041;-69
2021/07/17 04:18:20;;;;;;;9.20;5.45;;;;;;;;;;8258010;28;20372;-70
2021/07/17 04:22:25;;;;;;;10.90;5.97;;;;;;;;;;8258986;28;20483;-70
2021/07/17 04:26:30;;;;;;;17.88;5.80;;;;;;;;;;8257578;28;20361;-69
2021/07/17 04:30:36;;;;;;;9.82;5.43;;;;;;;;;;8257810;28;20471;-69
2021/07/17 04:34:41;;;;;;;9.40;4.95;;;;;;;;;;8256836;28;20056;-70
2021/07/17 04:38:46;;;;;;;12.88;5.32;;;;;;;;;;8257186;28;20411;-69
2021/07/17 04:42:51;;;;;;;7.93;4.75;;;;;;;;;;8257002;28;20451;-69
2021/07/17 04:46:56;;;;;;;7.85;4.75;;;;;;;;;;8258024;28;20444;-69
2021/07/17 04:51:01;;;;;;;7.28;4.63;;;;;;;;;;8239859;28;20489;-69
2021/07/17 04:55:07;;;;;;;8.95;4.55;;;;;;;;;;8259274;28;20379;-69
2021/07/17 04:59:12;;;;;;;7.63;4.88;;;;;;;;;;8258415;28;20406;-69
2021/07/17 05:03:17;;;;;;;7.28;4.65;;;;;;;;;;8280411;28;20383;-69
2021/07/17 05:07:23;;;;;;;8.00;4.30;;;;;;;;;;8289306;28;20436;-70
2021/07/17 05:11:28;;;;;;;5.75;3.97;;;;;;;;;;8288826;28;20502;-70
2021/07/17 05:15:33;;;;;;;7.47;4.03;;;;;;;;;;8273001;28;20467;-70
2021/07/17 05:19:38;;;;;;;9.23;4.78;;;;;;;;;;8290430;28;20041;-69
2021/07/17 05:23:44;;;;;;;10.25;4.10;;;;;;;;;;8288962;28;20049;-70
2021/07/17 05:27:49;;;;;;;10.32;5.15;;;;;;;;;;8289348;28;20349;-69
2021/07/17 05:31:53;;;;;;;11.55;4.43;;;;;;;;;;8271213;28;20472;-69
2021/07/17 05:36:00;;;;;;;8.50;4.15;;;;;;;;;;8271775;28;20459;-69
2021/07/17 05:40:06;;;;;;;6.30;4.47;;;;;;;;;;8289202;28;20482;-70
2021/07/17 05:44:11;;;;;;;10.30;4.40;;;;;;;;;;8272382;28;20067;-70
2021/07/17 05:48:16;;;;;;;10.40;3.95;;;;;;;;;;8290211;28;20049;-69
2021/07/17 05:52:21;;;;;;;10.65;4.25;;;;;;;;;;8288486;28;20379;-70
2021/07/17 05:56:26;;;;;;;11.55;4.38;;;;;;;;;;8289446;28;20372;-69
2021/07/17 06:00:31;;;;;;;8.82;4.13;;;;;;;;;;8289611;28;20478;-69
2021/07/17 06:04:36;;;;;;;7.57;4.20;;;;;;;;;;8288562;28;20476;-70
2021/07/17 06:08:41;;;;;;;9.65;4.05;;;;;;;;;;8288861;28;20053;-70
2021/07/17 06:12:46;;;;;;;8.05;4.72;;;;;;;;;;8292716;28;20361;-70
2021/07/17 06:16:51;;;;;;;7.13;4.78;;;;;;;;;;8295478;28;20041;-70
2021/07/17 06:20:58;;;;;;;13.15;4.68;;;;;;;;;;8294401;28;20033;-70
2021/07/17 06:25:05;;;;;;;5.20;4.00;;;;;;;;;;8294049;28;20497;-70
2021/07/17 06:29:10;;;;;;;7.40;4.32;;;;;;;;;;8275778;28;20992;-71
2021/07/17 06:33:14;;;;;;;10.45;4.30;;;;;;;;;;8294457;28;20376;-70
2021/07/17 06:37:19;;;;;;;12.20;4.30;;;;;;;;;;8294178;28;20052;-70
2021/07/17 06:41:24;;;;;;;4.93;3.38;;;;;;;;;;8276804;28;20443;-70
2021/07/17 06:45:29;;;;;;;8.77;3.85;;;;;;;;;;8294087;28;20328;-70
2021/07/17 06:49:34;;;;;;;6.72;4.13;;;;;;;;;;8275552;28;20491;-70
2021/07/17 06:53:39;;;;;;;9.18;3.78;;;;;;;;;;8275975;28;20483;-72
2021/07/17 06:57:45;;;;;;;5.75;3.38;;;;;;;;;;8293657;28;20375;-70
2021/07/17 07:01:50;;;;;;;4.63;3.42;;;;;;;;;;8291831;28;20360;-70
2021/07/17 07:05:57;;;;;;;9.82;3.58;;;;;;;;;;8293060;28;20348;-70
2021/07/17 07:10:02;;;;;;;6.78;3.97;;;;;;;;;;8275769;28;20438;-71
2021/07/17 07:14:08;;;;;;;13.50;3.78;;;;;;;;;;8274180;28;20348;-70
2021/07/17 07:18:14;;;;;;;5.38;3.42;;;;;;;;;;8258847;28;20374;-70
2021/07/17 07:22:19;;;;;;;5.80;3.15;;;;;;;;;;8291702;28;20413;-71
2021/07/17 07:26:24;;;;;;;8.57;4.22;;;;;;;;;;8273418;28;20379;-70
2021/07/17 07:30:29;;;;;;;6.35;3.60;;;;;;;;;;8275074;28;20386;-70
2021/07/17 07:34:34;;;;;;;7.28;3.05;;;;;;;;;;8193518;28;20045;-71
2021/07/17 07:38:39;;;;;;;7.15;3.00;;;;;;;;;;8248879;28;20483;-70
2021/07/17 07:42:44;;;;;;;6.78;3.17;;;;;;;;;;8277989;28;20471;-70
2021/07/17 07:46:49;;;;;;;7.90;2.80;;;;;;;;;;8273670;28;20471;-72
2021/07/17 07:50:58;;;;;;;7.22;3.13;;;;;;;;;;8256604;28;20518;-70
2021/07/17 07:55:03;;;;;;;9.55;3.33;;;;;;;;;;8291031;28;20348;-71
2021/07/17 07:59:08;;;;;;;5.72;3.00;;;;;;;;;;8291225;28;20106;-71
2021/07/17 08:03:13;;;;;;;9.40;2.55;;;;;;;;;;8290288;28;20491;-70
2021/07/17 08:07:18;;;;;;;4.30;2.83;;;;;;;;;;8290039;28;20390;-70
2021/07/17 08:11:27;;;;;;;4.30;3.05;;;;;;;;;;8290831;28;20467;-72
2021/07/17 08:15:32;;;;;;;6.07;2.83;;;;;;;;;;8272505;28;20367;-70
2021/07/17 08:19:37;;;;;;;7.57;2.88;;;;;;;;;;8290122;28;20379;-70
2021/07/17 08:23:44;;;;;;;12.63;3.58;;;;;;;;;;8270088;28;20044;-71
2021/07/17 08:27:48;;;;;;;8.63;3.00;;;;;;;;;;8289111;28;20368;-71
2021/07/17 08:31:53;;;;;;;7.50;3.30;;;;;;;;;;8290273;28;20380;-70
2021/07/17 08:35:59;;;;;;;10.10;3.00;;;;;;;;;;8289805;28;20471;-70
2021/07/17 08:40:08;;;;;;;5.40;2.85;;;;;;;;;;8272273;28;20451;-70
2021/07/17 08:44:14;;;;;;;6.80;2.97;;;;;;;;;;8290146;28;20395;-71
2021/07/17 08:48:20;;;;;;;4.57;3.10;;;;;;;;;;8270627;28;20371;-71
2021/07/17 08:52:28;;;;;;;7.57;3.05;;;;;;;;;;8288618;28;20530;-72
2021/07/17 08:56:34;;;;;;;8.93;3.13;;;;;;;;;;8289942;28;20368;-70
2021/07/17 09:00:42;;;;;;;9.00;3.67;;;;;;;;;;8291935;28;20356;-71
2021/07/17 09:04:47;;;;;;;6.82;3.38;;;;;;;;;;8253823;28;20468;-70
2021/07/17 09:08:53;;;;;;;6.82;3.40;;;;;;;;;;8255550;28;20490;-70
2021/07/17 09:13:07;;;;;;;8.35;3.28;;;;;;;;;;8256778;28;20372;-70
2021/07/17 09:17:25;;;;;;;13.00;3.55;;;;;;;;;;8260721;28;20466;-70
2021/07/17 09:21:38;;;;;;;12.27;3.58;;;;;;;;;;8255181;28;20364;-71
2021/07/17 09:25:43;;;;;;;6.43;3.38;;;;;;;;;;8257604;28;20325;-70
2021/07/17 09:29:49;;;;;;;10.50;3.53;;;;;;;;;;8257251;28;20360;-70
2021/07/17 09:34:12;;;;;;;7.28;3.08;;;;;;;;;;8257746;28;20360;-70
2021/07/17 09:38:18;;;;;;;6.35;3.28;;;;;;;;;;8257349;28;20330;-71
2021/07/17 09:42:23;;;;;;;9.90;3.60;;;;;;;;;;8254552;28;20376;-70
2021/07/17 09:46:29;;;;;;;9.57;3.63;;;;;;;;;;8260142;28;20379;-68
2021/07/17 09:50:34;;;;;;;6.78;3.33;;;;;;;;;;8263995;28;20486;-69
2021/07/17 09:55:01;;;;;;;4.07;3.38;;;;;;;;;;8245639;28;20055;-71
2021/07/17 09:59:08;;;;;;;6.05;3.42;;;;;;;;;;8263265;28;20122;-72
2021/07/17 10:03:14;;;;;;;4.47;2.85;;;;;;;;;;8268612;28;20052;-70
2021/07/17 10:07:20;;;;;;;9.27;3.15;;;;;;;;;;8276227;28;20483;-69
2021/07/17 10:11:26;;;;;;;6.72;3.22;;;;;;;;;;8276976;28;20492;-70
2021/07/17 10:15:32;;;;;;;6.63;3.58;;;;;;;;;;8275330;28;20378;-69
2021/07/17 10:19:38;;;;;;;;;;;;;;;;;;8295559;28;20402;-68
2021/07/17 10:23:43;;;;;;;;;;;;;;;;;;8293315;28;20294;-68
2021/07/17 10:27:49;;;;;;;9.23;3.17;;;;;;;;;;8296327;28;20301;-70
2021/07/17 10:31:56;;;;;;;7.72;3.67;;;;;;;;;;8276625;28;20379;-71
2021/07/17 10:36:09;;;;;;;8.32;3.92;;;;;;;;;;8293697;28;20493;-70
2021/07/17 10:40:16;;;;;;;7.65;3.67;;;;;;;;;;8275548;28;20493;-70
2021/07/17 10:44:43;;;;;;;7.90;4.55;;;;;;;;;;8259106;28;20482;-70
2021/07/17 10:48:53;;;;;;;7.93;4.50;;;;;;;;;;8275790;28;20455;-70
2021/07/17 10:52:58;;;;;;;13.55;6.35;;;;;;;;;;8293433;28;20387;-70
2021/07/17 10:57:04;;;;;;;12.70;4.55;;;;;;;;;;8238097;28;20499;-70
2021/07/17 11:01:09;;;;;;;11.43;4.13;;;;;;;;;;8267851;28;20498;-70
2021/07/17 11:05:35;;;;;;;11.18;4.13;;;;;;;;;;8292273;28;20387;-70
2021/07/17 11:09:52;;;;;;;6.03;3.72;;;;;;;;;;8257904;28;20503;-70
2021/07/17 11:14:06;;;;;;;10.63;3.55;;;;;;;;;;8274631;28;20375;-71
2021/07/17 11:18:22;;;;;;;11.13;4.70;;;;;;;;;;8291536;28;20482;-70
2021/07/17 11:22:30;;;;;;;9.60;4.00;;;;;;;;;;8274981;28;20040;-70
2021/07/17 11:26:34;;;;;;;8.82;3.45;;;;;;;;;;8292607;28;20052;-70
2021/07/17 11:30:40;;;;;;;21.08;3.97;;;;;;;;;;8293652;28;20597;-70
2021/07/17 11:34:52;;;;;;;6.65;3.75;;;;;;;;;;8276825;28;20600;-70
2021/07/17 11:38:57;;;;;;;9.52;3.78;;;;;;;;;;8291841;28;20363;-71
2021/07/17 11:43:08;;;;;;;10.43;3.85;;;;;;;;;;8276041;28;20440;-70
2021/07/17 11:47:20;;;;;;;5.60;3.65;;;;;;;;;;8291272;28;20443;-70
2021/07/17 11:51:25;;;;;;;5.55;3.28;;;;;;;;;;8292548;28;20457;-68
2021/07/17 11:55:29;;;;;;;6.63;3.97;;;;;;;;;;8291909;28;20367;-70
2021/07/17 11:59:35;;;;;;;8.15;3.63;;;;;;;;;;8273097;28;20593;-71
2021/07/17 12:03:39;;;;;;;7.33;3.93;;;;;;;;;;8273414;28;20052;-70
2021/07/17 12:07:46;;;;;;;5.05;2.95;;;;;;;;;;8289468;28;20044;-70
2021/07/17 12:11:51;;;;;;;6.10;3.40;;;;;;;;;;8290988;28;20458;-70
2021/07/17 12:15:56;;;;;;;11.30;3.85;;;;;;;;;;8290341;28;20032;-69
2021/07/17 12:20:06;;;;;;;5.88;3.85;;;;;;;;;;8289555;28;20375;-69
2021/07/17 12:24:11;;;;;;;6.80;3.55;;;;;;;;;;8290039;28;20348;-70
2021/07/17 12:28:20;;;;;;;6.45;3.90;;;;;;;;;;8271874;28;20344;-70
2021/07/17 12:32:25;;;;;;;8.40;4.18;;;;;;;;;;8289812;28;20360;-70
2021/07/17 12:36:29;;;;;;;8.15;3.83;;;;;;;;;;8291596;28;20487;-70
2021/07/17 12:40:46;;;;;;;7.43;3.88;;;;;;;;;;8289327;28;20063;-69
2021/07/17 12:44:58;;;;;;;11.27;4.10;;;;;;;;;;8271234;28;20329;-71
2021/07/17 12:49:05;;;;;;;10.07;3.90;;;;;;;;;;8256334;28;20389;-71
2021/07/17 12:53:14;;;;;;;6.65;4.20;;;;;;;;;;8285423;28;20495;-71
2021/07/17 12:57:19;;;;;;;6.10;4.22;;;;;;;;;;8240154;28;20376;-70
2021/07/17 13:01:27;;;;;;;6.22;4.00;;;;;;;;;;8273324;28;20372;-74
2021/07/17 13:05:47;;;;;;;;;;;;;;;;;;8255640;28;20373;-70
2021/07/17 13:09:51;;;;;;;11.00;4.38;;;;;;;;;;8257792;28;19924;-70
2021/07/17 13:13:59;;;;;;;10.50;5.47;;;;;;;;;;8256105;28;20404;-69
2021/07/17 13:18:24;;;;;;;8.40;4.35;;;;;;;;;;8256150;28;20529;-70
2021/07/17 13:22:41;;;;;;;6.85;4.60;;;;;;;;;;8262696;28;20355;-70
2021/07/17 13:26:57;;;;;;;11.48;5.15;;;;;;;;;;8262914;28;20367;-69
2021/07/17 13:31:18;;;;;;;7.50;4.57;;;;;;;;;;8264741;28;20045;-70
2021/07/17 13:35:29;;;;;;;7.90;4.55;;;;;;;;;;8261609;28;20367;-69
2021/07/17 13:39:55;;;;;;;6.63;4.55;;;;;;;;;;8262625;28;20472;-69
2021/07/17 13:44:16;;;;;;;11.20;4.60;;;;;;;;;;8263565;28;20483;-69
2021/07/17 13:48:20;;;;;;;11.02;4.38;;;;;;;;;;8261287;28;20467;-69
2021/07/17 13:52:38;;;;;;;8.30;4.72;;;;;;;;;;8262639;28;20044;-70
2021/07/17 13:56:43;;;;;;;6.47;4.40;;;;;;;;;;8261952;28;20383;-70
2021/07/17 14:00:57;;;;;;;9.48;5.53;;;;;;;;;;8262505;28;20452;-70
2021/07/17 14:05:09;;;;;;;;;;;;;;;;;;8261215;28;20052;-69
2021/07/17 14:09:15;;;;;;;7.93;4.90;;;;;;;;;;8262293;28;20026;-71
2021/07/17 14:13:20;;;;;;;9.20;4.70;;;;;;;;;;8262128;28;20383;-69
2021/07/17 14:17:25;;;;;;;8.13;4.68;;;;;;;;;;8261851;28;20106;-70
2021/07/17 14:21:30;;;;;;;12.13;5.30;;;;;;;;;;8261500;28;20049;-70
2021/07/17 14:25:38;;;;;;;12.65;6.25;;;;;;;;;;8263261;28;20045;-70
2021/07/17 14:29:42;;;;;;;10.90;4.93;;;;;;;;;;8244171;28;20362;-71
2021/07/17 14:33:48;;;;;;;8.48;5.28;;;;;;;;;;8258385;28;20071;-70
2021/07/17 14:37:54;;;;;;;9.88;6.00;;;;;;;;;;8261357;28;20459;-70
2021/07/17 14:41:59;;;;;;;9.13;4.93;;;;;;;;;;8261064;28;20383;-70
2021/07/17 14:46:06;;;;;;;13.53;4.93;;;;;;;;;;8260020;28;20360;-69
2021/07/17 14:50:12;;;;;;;12.68;4.60;;;;;;;;;;8260944;28;20045;-71
2021/07/17 14:54:18;;;;;;;9.48;5.68;;;;;;;;;;8242602;28;20707;-71
2021/07/17 14:58:23;;;;;;;7.80;4.72;;;;;;;;;;8276538;28;20542;-71
2021/07/17 15:02:28;;;;;;;9.30;4.80;;;;;;;;;;8260490;28;20041;-72
2021/07/17 15:06:32;;;;;;;8.15;5.40;;;;;;;;;;8293696;28;20477;-69
2021/07/17 15:10:37;;;;;;;10.10;4.72;;;;;;;;;;8275597;28;20363;-71
2021/07/17 15:14:42;;;;;;;6.95;4.78;;;;;;;;;;8291499;28;20356;-70
2021/07/17 15:18:47;;;;;;;11.75;4.70;;;;;;;;;;8292151;28;20379;-70
2021/07/17 15:22:52;;;;;;;5.60;4.47;;;;;;;;;;8293086;28;20482;-70
2021/07/17 15:26:57;;;;;;;10.77;4.72;;;;;;;;;;8293014;28;20407;-70
2021/07/17 15:31:02;;;;;;;10.52;4.90;;;;;;;;;;8274641;28;20463;-71
2021/07/17 15:35:08;;;;;;;6.45;5.15;;;;;;;;;;8291901;28;20358;-70
2021/07/17 15:39:14;;;;;;;6.63;4.95;;;;;;;;;;8292370;28;20401;-71
2021/07/17 15:43:20;;;;;;;8.85;4.40;;;;;;;;;;8290094;28;20067;-70
2021/07/17 15:47:25;;;;;;;7.68;5.00;;;;;;;;;;8273872;28;20398;-71
2021/07/17 15:51:30;;;;;;;8.20;4.97;;;;;;;;;;8273648;28;20033;-69
2021/07/17 15:55:36;;;;;;;8.73;4.70;;;;;;;;;;8273683;28;20337;-70
2021/07/17 15:59:41;;;;;;;9.63;4.50;;;;;;;;;;8292147;28;20063;-71
2021/07/17 16:03:47;;;;;;;7.07;4.60;;;;;;;;;;8271620;28;20384;-69
2021/07/17 16:07:52;;;;;;;7.68;4.22;;;;;;;;;;8291770;28;20406;-70
2021/07/17 16:11:58;;;;;;;13.85;5.18;;;;;;;;;;8291804;28;20351;-70
2021/07/17 16:16:05;;;;;;;8.80;4.70;;;;;;;;;;8274643;28;20079;-69
2021/07/17 16:20:10;;;;;;;9.05;4.80;;;;;;;;;;8291626;28;20037;-70
2021/07/17 16:24:15;;;;;;;7.50;4.85;;;;;;;;;;8273667;28;20478;-69
2021/07/17 16:28:20;;;;;;;8.10;4.63;;;;;;;;;;8292072;28;20056;-70
2021/07/17 16:32:25;;;;;;;9.18;4.78;;;;;;;;;;8290446;28;20397;-69
2021/07/17 16:36:31;;;;;;;9.63;4.55;;;;;;;;;;8288273;28;20363;-70
2021/07/17 16:40:36;;;;;;;7.18;4.60;;;;;;;;;;8289600;28;20474;-70
2021/07/17 16:44:43;;;;;;;7.65;4.70;;;;;;;;;;8290091;28;20486;-70
2021/07/17 16:48:48;;;;;;;9.13;5.05;;;;;;;;;;8272188;28;20476;-70
2021/07/17 16:52:53;;;;;;;8.65;4.80;;;;;;;;;;8289719;28;20040;-69
2021/07/17 16:56:58;;;;;;;10.80;4.47;;;;;;;;;;8288481;28;20352;-69
2021/07/17 17:01:04;;;;;;;8.85;4.82;;;;;;;;;;8289637;28;20410;-71
2021/07/17 17:05:10;;;;;;;14.02;7.38;;;;;;;;;;8287080;28;20360;-71
2021/07/17 17:09:15;;;;;;;6.55;4.85;;;;;;;;;;8271322;28;20424;-70
2021/07/17 17:13:24;;;;;;;83.00;12.40;;;;;;;;;;8271162;28;20348;-69
2021/07/17 17:17:29;;;;;;;7.65;5.43;;;;;;;;;;8288249;28;20363;-69
2021/07/17 17:21:34;;;;;;;14.25;5.72;;;;;;;;;;8289104;28;20052;-70
2021/07/17 17:25:39;;;;;;;6.82;4.90;;;;;;;;;;8272080;28;20070;-70
2021/07/17 17:29:44;;;;;;;44.53;11.05;;;;;;;;;;8187035;28;20387;-69
2021/07/17 17:33:50;;;;;;;14.27;5.25;;;;;;;;;;8255880;28;20063;-69
2021/07/17 17:37:54;;;;;;;6.95;4.70;;;;;;;;;;8236278;28;20041;-69
2021/07/17 17:41:58;;;;;;;11.20;5.22;;;;;;;;;;8256330;28;20330;-70
2021/07/17 17:46:03;;;;;;;29.83;11.25;;;;;;;;;;8254164;28;20518;-72
2021/07/17 17:50:11;;;;;;;12.35;5.88;;;;;;;;;;8236926;28;20514;-69
2021/07/17 17:54:15;;;;;;;10.50;5.97;;;;;;;;;;8237379;28;20459;-70
2021/07/17 17:58:20;;;;;;;13.88;7.65;;;;;;;;;;8256671;28;20364;-71
2021/07/17 18:02:26;;;;;;;9.30;5.63;;;;;;;;;;8255411;28;20356;-69
2021/07/17 18:06:30;;;;;;;11.70;5.75;;;;;;;;;;8191361;28;20050;-69
2021/07/17 18:10:33;;;;;;;7.70;5.15;;;;;;;;;;8197525;28;20469;-71
2021/07/17 18:14:39;;;;;;;13.27;5.93;;;;;;;;;;8197962;28;20330;-70
2021/07/17 18:18:45;;;;;;;10.67;6.37;;;;;;;;;;8195685;28;20373;-70
2021/07/17 18:22:53;;;;;;;9.10;5.47;;;;;;;;;;8197428;28;20475;-71
2021/07/17 18:26:56;;;;;;;7.60;5.53;;;;;;;;;;8196729;28;20450;-70
2021/07/17 18:31:02;;;;;;;13.05;5.40;;;;;;;;;;8194840;28;20377;-71
2021/07/17 18:35:08;;;;;;;9.07;5.43;;;;;;;;;;8196227;28;20377;-70
2021/07/17 18:39:14;;;;;;;11.27;5.32;;;;;;;;;;8195869;28;20041;-70
2021/07/17 18:43:19;;;;;;;10.32;5.43;;;;;;;;;;8197972;28;20466;-70
2021/07/17 18:47:24;;;;;;;10.25;6.03;;;;;;;;;;8195907;28;20389;-69
2021/07/17 18:51:29;;;;;;;13.20;7.57;;;;;;;;;;8196583;28;20344;-70
2021/07/17 18:55:34;;;;;;;8.75;5.70;;;;;;;;;;8195876;28;20352;-71
2021/07/17 18:59:39;;;;;;;12.15;5.72;;;;;;;;;;8193908;28;20038;-70
2021/07/17 19:03:44;;;;;;;12.35;5.45;;;;;;;;;;8213699;28;20411;-71
2021/07/17 19:07:49;;;;;;;7.90;5.22;;;;;;;;;;8260435;28;20494;-69
2021/07/17 19:11:54;;;;;;;11.60;5.75;;;;;;;;;;8259319;28;20391;-70
2021/07/17 19:16:00;;;;;;;13.35;5.68;;;;;;;;;;8260997;28;20080;-69
2021/07/17 19:20:08;;;;;;;13.68;5.75;;;;;;;;;;8259846;28;20471;-69
2021/07/17 19:24:13;;;;;;;12.10;5.75;;;;;;;;;;8242305;28;20352;-70
2021/07/17 19:28:18;;;;;;;8.20;5.65;;;;;;;;;;8243771;28;20489;-69
2021/07/17 19:32:23;;;;;;;11.13;6.22;;;;;;;;;;8294534;28;20471;-70
2021/07/17 19:36:28;;;;;;;14.25;6.65;;;;;;;;;;8275164;28;20390;-70
2021/07/17 19:40:33;;;;;;;9.75;6.15;;;;;;;;;;8292143;28;20459;-71
2021/07/17 19:44:38;;;;;;;13.63;7.10;;;;;;;;;;8274500;28;20348;-70
2021/07/17 19:48:43;;;;;;;12.27;6.72;;;;;;;;;;8270636;28;20639;-71
2021/07/17 19:52:49;;;;;;;11.27;7.30;;;;;;;;;;8291674;28;20394;-70
2021/07/17 19:56:55;;;;;;;10.65;6.63;;;;;;;;;;8290328;28;20456;-70
2021/07/17 20:01:00;;;;;;;12.45;6.70;;;;;;;;;;8291202;28;20074;-70
2021/07/17 20:05:06;;;;;;;13.63;8.30;;;;;;;;;;8257592;28;20503;-70
2021/07/17 20:09:12;;;;;;;10.88;6.68;;;;;;;;;;8259538;28;20613;-70
2021/07/17 20:13:17;;;;;;;10.85;7.35;;;;;;;;;;8258158;28;20049;-69
2021/07/17 20:17:20;;;;;;;13.65;6.07;;;;;;;;;;8259347;28;20476;-69
2021/07/17 20:21:26;;;;;;;12.05;6.32;;;;;;;;;;8257380;28;20493;-71
2021/07/17 20:25:33;;;;;;;9.95;5.18;;;;;;;;;;8258265;28;20361;-69
2021/07/17 20:29:38;;;;;;;14.35;5.05;;;;;;;;;;8255631;28;20498;-70
2021/07/17 20:33:43;;;;;;;9.82;5.43;;;;;;;;;;8256445;28;20356;-70
2021/07/17 20:37:48;;;;;;;9.85;4.60;;;;;;;;;;8257436;28;20387;-69
2021/07/17 20:41:54;;;;;;;7.28;5.03;;;;;;;;;;8251916;28;20044;-70
2021/07/17 20:46:01;;;;;;;7.97;4.68;;;;;;;;;;8191383;28;20363;-70
2021/07/17 20:50:18;;;;;;;9.52;4.95;;;;;;;;;;8137885;28;20398;-69
2021/07/17 20:54:22;;;;;;;6.43;4.75;;;;;;;;;;8189193;28;20392;-69
2021/07/17 20:58:31;;;;;;;12.30;5.30;;;;;;;;;;8256437;28;20060;-69
2021/07/17 21:02:37;;;;;;;7.53;5.35;;;;;;;;;;8259466;28;20493;-70
2021/07/17 21:06:40;;;;;;;15.90;6.43;;;;;;;;;;8271551;28;20497;-69
2021/07/17 21:10:45;;;;;;;11.30;5.80;;;;;;;;;;8289874;28;20489;-71
2021/07/17 21:14:50;;;;;;;11.55;6.30;;;;;;;;;;8272386;28;20355;-71
2021/07/17 21:18:56;;;;;;;15.02;6.40;;;;;;;;;;8253993;28;20379;-72
2021/07/17 21:23:01;;;;;;;11.98;6.90;;;;;;;;;;8288855;28;20067;-72
2021/07/17 21:27:11;;;;;;;22.65;6.57;;;;;;;;;;8290785;28;20378;-74
2021/07/17 21:31:20;;;;;;;13.82;6.18;;;;;;;;;;8290103;28;20036;-72
2021/07/17 21:35:25;;;;;;;13.15;6.55;;;;;;;;;;8290066;28;20372;-73
2021/07/17 21:39:31;;;;;;;12.50;6.60;;;;;;;;;;8289445;28;20497;-72
2021/07/17 21:43:38;;;;;;;12.23;6.90;;;;;;;;;;8296676;28;20450;-72
2021/07/17 21:47:43;;;;;;;13.05;7.43;;;;;;;;;;8278337;28;20497;-72
2021/07/17 21:51:48;;;;;;;13.10;6.20;;;;;;;;;;8278803;28;20459;-71
2021/07/17 21:55:53;;;;;;;12.27;7.30;;;;;;;;;;8295906;28;20369;-73
2021/07/17 21:59:59;;;;;;;13.48;6.97;;;;;;;;;;8297879;28;20655;-73
2021/07/17 22:04:14;;;;;;;16.75;7.35;;;;;;;;;;8295954;28;20506;-72
2021/07/17 22:08:27;;;;;;;23.08;8.75;;;;;;;;;;8277086;28;20362;-72
2021/07/17 22:12:33;;;;;;;13.93;8.75;;;;;;;;;;8279056;28;20459;-72
2021/07/17 22:16:41;;;;;;;17.02;9.07;;;;;;;;;;8276270;28;20484;-72
2021/07/17 22:20:49;;;;;;;15.55;8.73;;;;;;;;;;8294642;28;20351;-72
2021/07/17 22:24:54;;;;;;;;;;;;;;;;;;8296955;28;20475;-72
2021/07/17 22:29:00;;;;;;;13.80;9.00;;;;;;;;;;8296697;28;20259;-72
2021/07/17 22:33:06;;;;;;;13.18;9.25;;;;;;;;;;8295609;28;20451;-72
2021/07/17 22:37:10;;;;;;;15.00;10.02;;;;;;;;;;8293022;28;20378;-72
2021/07/17 22:41:16;;;;;;;11.25;8.73;;;;;;;;;;8259784;28;20352;-72
2021/07/17 22:45:22;;;;;;;17.38;9.63;;;;;;;;;;8278446;28;20062;-71
2021/07/17 22:49:28;;;;;;;14.68;8.43;;;;;;;;;;8276723;28;20037;-71
2021/07/17 22:53:32;;;;;;;15.73;10.48;;;;;;;;;;8293775;28;20079;-71
2021/07/17 22:57:38;;;;;;;11.68;9.40;;;;;;;;;;8293284;28;20483;-71
2021/07/17 23:01:43;;;;;;;17.77;9.70;;;;;;;;;;8292905;28;20080;-72
2021/07/17 23:05:48;;;;;;;22.73;10.13;;;;;;;;;;8243175;28;20434;-72
2021/07/17 23:09:54;;;;;;;15.13;9.48;;;;;;;;;;8261547;28;20502;-72
2021/07/17 23:13:59;;;;;;;15.25;9.20;;;;;;;;;;8258687;28;20388;-73
2021/07/17 23:18:03;;;;;;;16.50;10.35;;;;;;;;;;8258548;28;20440;-71
2021/07/17 23:22:08;;;;;;;21.35;9.93;;;;;;;;;;8260291;28;20071;-72
2021/07/17 23:26:12;;;;;;;12.82;9.73;;;;;;;;;;8260611;28;20471;-72
2021/07/17 23:30:21;;;;;;;16.23;10.20;;;;;;;;;;8258960;28;20477;-74
2021/07/17 23:34:26;;;;;;;14.60;10.73;;;;;;;;;;8260337;28;20407;-72
2021/07/17 23:38:31;;;;;;;18.55;11.07;;;;;;;;;;8258424;28;20502;-72
2021/07/17 23:42:38;;;;;;;17.23;10.68;;;;;;;;;;8260001;28;20041;-72
2021/07/17 23:46:42;;;;;;;21.45;10.93;;;;;;;;;;8261329;28;20448;-72
2021/07/17 23:50:48;;;;;;;15.98;10.90;;;;;;;;;;8258691;28;20040;-72
2021/07/17 23:54:53;;;;;;;19.15;9.70;;;;;;;;;;8260277;28;20488;-72
2021/07/17 23:58:56;;;;;;;20.02;11.20;;;;;;;;;;8261260;28;20468;-71
